MSC Paola — D5PE6 — position and weather

sailwx.info

Track history (hours):
 
Tides and Currents Weather Stations Pressure Air Temp Water Temp Dewpoint Dewpoint Depression Visibility Wind Speed Wind Dir Waves Ship Positions

MSC Paola

Last reported at 2018-Jun-20 14:56 UTC. Time now 2018-Jun-20 15:06 UTC.
Position N 38°27' E 015°54'.

Length 243 m; draft 11.2 m.

Type: Ship (hazmat cat A). MMSI: 636018318.

Date/timePositionNaut miles runAvg speedWind from/ knotsBaromVisibWave heightAir tempDewpointWater temp
2018-Jun-20 14:56N 38°27' E 015°54'0 0.0
2018-Jun-20 14:23N 38°27' E 015°54'0 0.0
2018-Jun-20 10:38N 38°27' E 015°54'0 0.0
2018-Jun-20 09:45N 38°27' E 015°54'0 0.0
2018-Jun-19 21:24N 38°27' E 015°54'0 0.0
2018-Jun-19 20:48N 38°27' E 015°54'0 0.0
2018-Jun-19 18:55N 38°27' E 015°54'0 0.0
2018-Jun-19 18:26N 38°27' E 015°54'0 0.0
2018-Jun-19 17:34N 38°27' E 015°54'0 0.0
2018-Jun-19 17:28N 38°27' E 015°54'0 0.0
2018-Jun-19 16:51N 38°27' E 015°54'0 0.0
2018-Jun-19 16:27N 38°27' E 015°54'0 0.0
2018-Jun-19 15:57N 38°27' E 015°54'0 0.0
2018-Jun-19 15:28N 38°27' E 015°54'0 0.0
2018-Jun-19 14:44N 38°27' E 015°54'0 0.0
2018-Jun-19 14:22N 38°27' E 015°54'0 0.0
2018-Jun-19 12:04N 38°27' E 015°54'0 0.0
2018-Jun-19 11:58N 38°27' E 015°54'0 0.0
2018-Jun-19 11:28N 38°27' E 015°54'0 0.0
2018-Jun-19 10:56N 38°27' E 015°54'0 0.0
2018-Jun-19 10:28N 38°27' E 015°54'0 0.0
2018-Jun-19 09:52N 38°27' E 015°54'0 0.0
2018-Jun-19 07:41N 38°27' E 015°54'0 0.7
2018-Jun-19 07:30N 38°27' E 015°54'2 4.2
2018-Jun-19 06:56N 38°27' E 015°51'4 9.4
2018-Jun-19 06:29N 38°26' E 015°46'4 9.0
2018-Jun-19 06:01N 38°25' E 015°41'713.4
2018-Jun-19 05:31N 38°24' E 015°32'713.7
2018-Jun-19 05:01N 38°21' E 015°24'713.3
2018-Jun-19 04:30N 38°19' E 015°16'613.2
2018-Jun-19 04:01N 38°19' E 015°08'612.8
2018-Jun-19 03:31N 38°19' E 014°59'612.8
2018-Jun-19 03:01N 38°20' E 014°51'812.8
2018-Jun-19 02:23N 38°21' E 014°41'1812.7
2018-Jun-19 00:56N 38°22' E 014°18'612.5
2018-Jun-19 00:26N 38°22' E 014°10'512.6
2018-Jun-19 00:00N 38°22' E 014°03'612.3
2018-Jun-18 23:30N 38°22' E 013°55'612.4
2018-Jun-18 23:01N 38°22' E 013°47'612.2
2018-Jun-18 22:30N 38°23' E 013°40'612.2
2018-Jun-18 22:00N 38°24' E 013°32'612.6
2018-Jun-18 21:31N 38°25' E 013°24'612.5
2018-Jun-18 21:00N 38°26' E 013°16'612.6
2018-Jun-18 20:30N 38°25' E 013°08'612.6
2018-Jun-18 20:01N 38°24' E 013°00'44113.2
2018-Jun-17 10:39N 37°10' E 003°50'312.9
2018-Jun-17 10:24N 37°10' E 003°46'612.4
2018-Jun-17 09:52N 37°09' E 003°37'711.7
2018-Jun-17 09:19N 37°08' E 003°29'1611.0
2018-Jun-17 07:54N 37°05' E 003°10'411.4
2018-Jun-17 07:30N 37°04' E 003°05'611.4
2018-Jun-17 06:59N 37°03' E 002°57'611.5
2018-Jun-17 06:30N 37°03' E 002°50'611.6
2018-Jun-17 06:00N 37°02' E 002°43'611.5
2018-Jun-17 05:30N 37°01' E 002°36'612.3
2018-Jun-17 05:00N 36°60' E 002°29'816.5
2018-Jun-17 04:30N 36°58' E 002°18'918.5
2018-Jun-17 04:00N 36°56' E 002°07'919.0
2018-Jun-17 03:30N 36°55' E 001°55'815.4
2018-Jun-17 03:01N 36°54' E 001°46'713.5
2018-Jun-17 02:30N 36°52' E 001°38'613.0
2018-Jun-17 02:00N 36°51' E 001°30'612.8
2018-Jun-17 01:30N 36°50' E 001°22'713.1
2018-Jun-17 01:00N 36°49' E 001°14'712.9
2018-Jun-17 00:27N 36°48' E 001°05'613.0
2018-Jun-17 00:01N 36°47' E 000°58'612.9
2018-Jun-16 23:31N 36°46' E 000°50'612.7
2018-Jun-16 23:00N 36°45' E 000°42'612.7
2018-Jun-16 22:30N 36°44' E 000°34'1212.5
2018-Jun-16 21:35N 36°42' E 000°20'112.2
2018-Jun-16 21:30N 36°42' E 000°19'612.1
2018-Jun-16 21:00N 36°40' E 000°11'712.1
2018-Jun-16 20:25N 36°39' E 000°03'712.4
2018-Jun-16 19:50N 36°38' W 000°06'712.7
2018-Jun-16 19:19N 36°37' W 000°14'912.8
2018-Jun-16 18:38N 36°35' W 000°25'213.1
2018-Jun-16 18:30N 36°35' W 000°27'612.5
2018-Jun-16 18:01N 36°35' W 000°35'612.2
2018-Jun-16 17:31N 36°34' W 000°42'612.5
2018-Jun-16 17:00N 36°33' W 000°50'2012.7
2018-Jun-16 15:25N 36°29' W 001°15'512.9
2018-Jun-16 15:00N 36°28' W 001°21'713.0
2018-Jun-16 14:28N 36°27' W 001°30'16416.2
2018-Jun-16 04:19N 36°01' W 004°51'618.5
2018-Jun-16 03:59N 36°00' W 004°59'919.5
2018-Jun-16 03:30N 35°59' W 005°10'1020.6
2018-Jun-16 03:00N 35°58' W 005°23'1118.7
2018-Jun-16 02:26N 35°55' W 005°36'715.7
2018-Jun-16 01:58N 35°54' W 005°45'15617.4
2018-Jun-15 16:59N 36°05' W 008°57'  
Track history (hours):
 
Tides and Currents Weather Stations Pressure Air Temp Water Temp Dewpoint Dewpoint Depression Visibility Wind Speed Wind Dir Waves Ship Positions

MSC Paola

Last reported at 2018-Jun-20 14:56 UTC. Time now 2018-Jun-20 15:06 UTC.
Position N 38°27' E 015°54'.

Length 243 m; draft 11.2 m.

Type: Ship (hazmat cat A). MMSI: 636018318.

Date/timePositionNaut miles runAvg speedWind from/ knotsBaromVisibWave heightAir tempDewpointWater temp
2018-Jun-20 14:56N 38°27' E 015°54'0 0.0
2018-Jun-20 14:23N 38°27' E 015°54'0 0.0
2018-Jun-20 10:38N 38°27' E 015°54'0 0.0
2018-Jun-20 09:45N 38°27' E 015°54'0 0.0
2018-Jun-19 21:24N 38°27' E 015°54'0 0.0
2018-Jun-19 20:48N 38°27' E 015°54'0 0.0
2018-Jun-19 18:55N 38°27' E 015°54'0 0.0
2018-Jun-19 18:26N 38°27' E 015°54'0 0.0
2018-Jun-19 17:34N 38°27' E 015°54'0 0.0
2018-Jun-19 17:28N 38°27' E 015°54'0 0.0
2018-Jun-19 16:51N 38°27' E 015°54'0 0.0
2018-Jun-19 16:27N 38°27' E 015°54'0 0.0
2018-Jun-19 15:57N 38°27' E 015°54'0 0.0
2018-Jun-19 15:28N 38°27' E 015°54'0 0.0
2018-Jun-19 14:44N 38°27' E 015°54'0 0.0
2018-Jun-19 14:22N 38°27' E 015°54'0 0.0
2018-Jun-19 12:04N 38°27' E 015°54'0 0.0
2018-Jun-19 11:58N 38°27' E 015°54'0 0.0
2018-Jun-19 11:28N 38°27' E 015°54'0 0.0
2018-Jun-19 10:56N 38°27' E 015°54'0 0.0
2018-Jun-19 10:28N 38°27' E 015°54'0 0.0
2018-Jun-19 09:52N 38°27' E 015°54'0 0.0
2018-Jun-19 07:41N 38°27' E 015°54'0 0.7
2018-Jun-19 07:30N 38°27' E 015°54'2 4.2
2018-Jun-19 06:56N 38°27' E 015°51'4 9.4
2018-Jun-19 06:29N 38°26' E 015°46'4 9.0
2018-Jun-19 06:01N 38°25' E 015°41'713.4
2018-Jun-19 05:31N 38°24' E 015°32'713.7
2018-Jun-19 05:01N 38°21' E 015°24'713.3
2018-Jun-19 04:30N 38°19' E 015°16'613.2
2018-Jun-19 04:01N 38°19' E 015°08'612.8
2018-Jun-19 03:31N 38°19' E 014°59'612.8
2018-Jun-19 03:01N 38°20' E 014°51'812.8
2018-Jun-19 02:23N 38°21' E 014°41'1812.7
2018-Jun-19 00:56N 38°22' E 014°18'612.5
2018-Jun-19 00:26N 38°22' E 014°10'512.6
2018-Jun-19 00:00N 38°22' E 014°03'612.3
2018-Jun-18 23:30N 38°22' E 013°55'612.4
2018-Jun-18 23:01N 38°22' E 013°47'612.2
2018-Jun-18 22:30N 38°23' E 013°40'612.2
2018-Jun-18 22:00N 38°24' E 013°32'612.6
2018-Jun-18 21:31N 38°25' E 013°24'612.5
2018-Jun-18 21:00N 38°26' E 013°16'612.6
2018-Jun-18 20:30N 38°25' E 013°08'612.6
2018-Jun-18 20:01N 38°24' E 013°00'44113.2
2018-Jun-17 10:39N 37°10' E 003°50'312.9
2018-Jun-17 10:24N 37°10' E 003°46'612.4
2018-Jun-17 09:52N 37°09' E 003°37'711.7
2018-Jun-17 09:19N 37°08' E 003°29'1611.0
2018-Jun-17 07:54N 37°05' E 003°10'411.4
2018-Jun-17 07:30N 37°04' E 003°05'611.4
2018-Jun-17 06:59N 37°03' E 002°57'611.5
2018-Jun-17 06:30N 37°03' E 002°50'611.6
2018-Jun-17 06:00N 37°02' E 002°43'611.5
2018-Jun-17 05:30N 37°01' E 002°36'612.3
2018-Jun-17 05:00N 36°60' E 002°29'816.5
2018-Jun-17 04:30N 36°58' E 002°18'918.5
2018-Jun-17 04:00N 36°56' E 002°07'919.0
2018-Jun-17 03:30N 36°55' E 001°55'815.4
2018-Jun-17 03:01N 36°54' E 001°46'713.5
2018-Jun-17 02:30N 36°52' E 001°38'613.0
2018-Jun-17 02:00N 36°51' E 001°30'612.8
2018-Jun-17 01:30N 36°50' E 001°22'713.1
2018-Jun-17 01:00N 36°49' E 001°14'712.9
2018-Jun-17 00:27N 36°48' E 001°05'613.0
2018-Jun-17 00:01N 36°47' E 000°58'612.9
2018-Jun-16 23:31N 36°46' E 000°50'612.7
2018-Jun-16 23:00N 36°45' E 000°42'612.7
2018-Jun-16 22:30N 36°44' E 000°34'1212.5
2018-Jun-16 21:35N 36°42' E 000°20'112.2
2018-Jun-16 21:30N 36°42' E 000°19'612.1
2018-Jun-16 21:00N 36°40' E 000°11'712.1
2018-Jun-16 20:25N 36°39' E 000°03'712.4
2018-Jun-16 19:50N 36°38' W 000°06'712.7
2018-Jun-16 19:19N 36°37' W 000°14'912.8
2018-Jun-16 18:38N 36°35' W 000°25'213.1
2018-Jun-16 18:30N 36°35' W 000°27'612.5
2018-Jun-16 18:01N 36°35' W 000°35'612.2
2018-Jun-16 17:31N 36°34' W 000°42'612.5
2018-Jun-16 17:00N 36°33' W 000°50'2012.7
2018-Jun-16 15:25N 36°29' W 001°15'512.9
2018-Jun-16 15:00N 36°28' W 001°21'713.0
2018-Jun-16 14:28N 36°27' W 001°30'16416.2
2018-Jun-16 04:19N 36°01' W 004°51'618.5
2018-Jun-16 03:59N 36°00' W 004°59'919.5
2018-Jun-16 03:30N 35°59' W 005°10'1020.6
2018-Jun-16 03:00N 35°58' W 005°23'1118.7
2018-Jun-16 02:26N 35°55' W 005°36'715.7
2018-Jun-16 01:58N 35°54' W 005°45'15617.4
2018-Jun-15 16:59N 36°05' W 008°57'  

Dump ship's entire track history